sensor_id;sensor_type;location;lat;lon;timestamp;pressure;altitude;pressure_sealevel;temperature;humidity
31096;BME280;17749;51.962;8.560;2023-01-25T00:00:49;102150.34;;;0.44;100.00
31096;BME280;17749;51.962;8.560;2023-01-25T00:03:17;102150.31;;;0.42;100.00
31096;BME280;17749;51.962;8.560;2023-01-25T00:05:44;102149.16;;;0.34;100.00
31096;BME280;17749;51.962;8.560;2023-01-25T00:08:11;102144.75;;;0.33;100.00
31096;BME280;17749;51.962;8.560;2023-01-25T00:10:38;102153.75;;;0.41;100.00
31096;BME280;17749;51.962;8.560;2023-01-25T00:13:06;102143.38;;;0.44;100.00
31096;BME280;17749;51.962;8.560;2023-01-25T00:15:36;102139.75;;;0.41;100.00
31096;BME280;17749;51.962;8.560;2023-01-25T00:18:04;102140.66;;;0.41;100.00
31096;BME280;17749;51.962;8.560;2023-01-25T00:20:31;102130.66;;;0.30;100.00
31096;BME280;17749;51.962;8.560;2023-01-25T00:22:59;102128.19;;;0.34;100.00
31096;BME280;17749;51.962;8.560;2023-01-25T00:25:26;102129.91;;;0.34;100.00
31096;BME280;17749;51.962;8.560;2023-01-25T00:27:57;102122.03;;;0.34;100.00
31096;BME280;17749;51.962;8.560;2023-01-25T00:30:29;102116.50;;;0.25;100.00
31096;BME280;17749;51.962;8.560;2023-01-25T00:35:43;102114.84;;;0.27;100.00
31096;BME280;17749;51.962;8.560;2023-01-25T00:38:33;102106.13;;;0.28;100.00
31096;BME280;17749;51.962;8.560;2023-01-25T00:41:01;102101.84;;;0.31;100.00
31096;BME280;17749;51.962;8.560;2023-01-25T00:43:28;102098.41;;;0.32;100.00
31096;BME280;17749;51.962;8.560;2023-01-25T00:46:01;102101.06;;;0.34;100.00
31096;BME280;17749;51.962;8.560;2023-01-25T00:48:32;102091.50;;;0.34;100.00
31096;BME280;17749;51.962;8.560;2023-01-25T00:51:01;102099.38;;;0.34;100.00
31096;BME280;17749;51.962;8.560;2023-01-25T00:53:30;102095.03;;;0.36;100.00
31096;BME280;17749;51.962;8.560;2023-01-25T00:55:57;102093.19;;;0.34;100.00
31096;BME280;17749;51.962;8.560;2023-01-25T00:58:25;102093.28;;;0.35;100.00
31096;BME280;17749;51.962;8.560;2023-01-25T01:00:56;102095.91;;;0.35;100.00
31096;BME280;17749;51.962;8.560;2023-01-25T01:03:24;102088.91;;;0.36;100.00
31096;BME280;17749;51.962;8.560;2023-01-25T01:06:07;102096.84;;;0.37;100.00
31096;BME280;17749;51.962;8.560;2023-01-25T01:08:40;102085.94;;;0.25;100.00
31096;BME280;17749;51.962;8.560;2023-01-25T01:11:10;102096.41;;;0.25;100.00
31096;BME280;17749;51.962;8.560;2023-01-25T01:13:38;102085.75;;;0.19;100.00
31096;BME280;17749;51.962;8.560;2023-01-25T01:16:07;102088.47;;;0.22;100.00
31096;BME280;17749;51.962;8.560;2023-01-25T01:18:40;102078.06;;;0.25;100.00
31096;BME280;17749;51.962;8.560;2023-01-25T01:21:08;102091.28;;;0.28;100.00
31096;BME280;17749;51.962;8.560;2023-01-25T01:23:38;102090.50;;;0.31;100.00
31096;BME280;17749;51.962;8.560;2023-01-25T01:26:15;102093.28;;;0.35;100.00
31096;BME280;17749;51.962;8.560;2023-01-25T01:28:45;102078.44;;;0.36;100.00
31096;BME280;17749;51.962;8.560;2023-01-25T01:31:18;102090.03;;;0.42;100.00
31096;BME280;17749;51.962;8.560;2023-01-25T01:34:04;102087.34;;;0.41;100.00
31096;BME280;17749;51.962;8.560;2023-01-25T01:36:32;102088.91;;;0.36;100.00
31096;BME280;17749;51.962;8.560;2023-01-25T01:39:01;102094.22;;;0.37;100.00
31096;BME280;17749;51.962;8.560;2023-01-25T01:41:28;102089.78;;;0.36;100.00
31096;BME280;17749;51.962;8.560;2023-01-25T01:43:56;102086.34;;;0.37;100.00
31096;BME280;17749;51.962;8.560;2023-01-25T01:46:34;102088.13;;;0.38;100.00
31096;BME280;17749;51.962;8.560;2023-01-25T01:49:25;102102.28;;;0.43;100.00
31096;BME280;17749;51.962;8.560;2023-01-25T01:52:06;102090.81;;;0.40;100.00
31096;BME280;17749;51.962;8.560;2023-01-25T01:54:58;102104.03;;;0.44;100.00
31096;BME280;17749;51.962;8.560;2023-01-25T01:57:34;102086.97;;;0.30;100.00
31096;BME280;17749;51.962;8.560;2023-01-25T02:00:17;102095.81;;;0.34;100.00
31096;BME280;17749;51.962;8.560;2023-01-25T02:02:48;102094.16;;;0.36;100.00
31096;BME280;17749;51.962;8.560;2023-01-25T02:05:23;102091.69;;;0.40;100.00
31096;BME280;17749;51.962;8.560;2023-01-25T02:07:53;102089.97;;;0.41;100.00
31096;BME280;17749;51.962;8.560;2023-01-25T02:10:31;102082.00;;;0.38;100.00
31096;BME280;17749;51.962;8.560;2023-01-25T02:13:07;102087.94;;;0.32;100.00
31096;BME280;17749;51.962;8.560;2023-01-25T02:15:41;102075.56;;;0.28;100.00
31096;BME280;17749;51.962;8.560;2023-01-25T02:18:15;102080.00;;;0.31;100.00
31096;BME280;17749;51.962;8.560;2023-01-25T02:20:45;102081.84;;;0.33;100.00
31096;BME280;17749;51.962;8.560;2023-01-25T02:26:04;102068.69;;;0.32;100.00
31096;BME280;17749;51.962;8.560;2023-01-25T02:28:46;102074.91;;;0.35;100.00
31096;BME280;17749;51.962;8.560;2023-01-25T02:31:22;102077.63;;;0.38;100.00
31096;BME280;17749;51.962;8.560;2023-01-25T02:33:51;102069.84;;;0.40;100.00
31096;BME280;17749;51.962;8.560;2023-01-25T02:36:25;102067.13;;;0.37;100.00
31096;BME280;17749;51.962;8.560;2023-01-25T02:39:03;102074.06;;;0.36;100.00
31096;BME280;17749;51.962;8.560;2023-01-25T02:41:34;102055.84;;;0.39;100.00
31096;BME280;17749;51.962;8.560;2023-01-25T02:44:10;102068.25;;;0.45;100.00
31096;BME280;17749;51.962;8.560;2023-01-25T02:46:43;102063.66;;;0.38;100.00
31096;BME280;17749;51.962;8.560;2023-01-25T02:49:12;102063.72;;;0.39;100.00
31096;BME280;17749;51.962;8.560;2023-01-25T02:51:43;102053.09;;;0.36;100.00
31096;BME280;17749;51.962;8.560;2023-01-25T02:54:12;102069.78;;;0.38;100.00
31096;BME280;17749;51.962;8.560;2023-01-25T02:56:40;102056.56;;;0.35;100.00
31096;BME280;17749;51.962;8.560;2023-01-25T02:59:10;102058.41;;;0.38;100.00
31096;BME280;17749;51.962;8.560;2023-01-25T03:01:44;102044.31;;;0.34;100.00
31096;BME280;17749;51.962;8.560;2023-01-25T03:04:18;102051.44;;;0.38;100.00
31096;BME280;17749;51.962;8.560;2023-01-25T03:06:46;102037.53;;;0.41;100.00
31096;BME280;17749;51.962;8.560;2023-01-25T03:09:15;102043.03;;;0.49;100.00
31096;BME280;17749;51.962;8.560;2023-01-25T03:12:11;102034.31;;;0.50;100.00
31096;BME280;17749;51.962;8.560;2023-01-25T03:14:41;102021.09;;;0.47;100.00
31096;BME280;17749;51.962;8.560;2023-01-25T03:17:13;102028.09;;;0.46;100.00
31096;BME280;17749;51.962;8.560;2023-01-25T03:19:42;102027.28;;;0.49;100.00
31096;BME280;17749;51.962;8.560;2023-01-25T03:22:10;102022.06;;;0.49;100.00
31096;BME280;17749;51.962;8.560;2023-01-25T03:24:39;102016.00;;;0.51;100.00
31096;BME280;17749;51.962;8.560;2023-01-25T03:30:01;102008.88;;;0.47;100.00
31096;BME280;17749;51.962;8.560;2023-01-25T03:32:32;102010.63;;;0.47;100.00
31096;BME280;17749;51.962;8.560;2023-01-25T03:35:06;101995.56;;;0.39;100.00
31096;BME280;17749;51.962;8.560;2023-01-25T03:37:35;101993.66;;;0.35;100.00
31096;BME280;17749;51.962;8.560;2023-01-25T03:40:04;101979.03;;;0.42;100.00
31096;BME280;17749;51.962;8.560;2023-01-25T03:42:32;101990.59;;;0.49;100.00
31096;BME280;17749;51.962;8.560;2023-01-25T03:45:03;101978.22;;;0.44;100.00
31096;BME280;17749;51.962;8.560;2023-01-25T03:47:31;101976.44;;;0.43;100.00
31096;BME280;17749;51.962;8.560;2023-01-25T03:49:59;101981.59;;;0.40;100.00
31096;BME280;17749;51.962;8.560;2023-01-25T03:52:35;101981.69;;;0.43;100.00
31096;BME280;17749;51.962;8.560;2023-01-25T03:55:14;101970.34;;;0.44;100.00
31096;BME280;17749;51.962;8.560;2023-01-25T03:57:45;101986.13;;;0.46;100.00
31096;BME280;17749;51.962;8.560;2023-01-25T04:00:15;101980.97;;;0.48;100.00
31096;BME280;17749;51.962;8.560;2023-01-25T04:02:57;101971.50;;;0.53;100.00
31096;BME280;17749;51.962;8.560;2023-01-25T04:05:32;101960.69;;;0.42;100.00
31096;BME280;17749;51.962;8.560;2023-01-25T04:08:01;101962.22;;;0.35;100.00
31096;BME280;17749;51.962;8.560;2023-01-25T04:10:35;101958.94;;;0.42;100.00
31096;BME280;17749;51.962;8.560;2023-01-25T04:13:08;101952.13;;;0.48;100.00
31096;BME280;17749;51.962;8.560;2023-01-25T04:15:36;101953.97;;;0.52;100.00
31096;BME280;17749;51.962;8.560;2023-01-25T04:18:13;101952.94;;;0.47;100.00
31096;BME280;17749;51.962;8.560;2023-01-25T04:20:44;101960.81;;;0.47;100.00
31096;BME280;17749;51.962;8.560;2023-01-25T04:23:12;101947.59;;;0.43;100.00
31096;BME280;17749;51.962;8.560;2023-01-25T04:25:42;101949.34;;;0.43;100.00
31096;BME280;17749;51.962;8.560;2023-01-25T04:28:14;101952.00;;;0.44;100.00
31096;BME280;17749;51.962;8.560;2023-01-25T04:30:43;101945.06;;;0.45;100.00
31096;BME280;17749;51.962;8.560;2023-01-25T04:33:14;101947.66;;;0.45;100.00
31096;BME280;17749;51.962;8.560;2023-01-25T04:35:43;101941.34;;;0.38;100.00
31096;BME280;17749;51.962;8.560;2023-01-25T04:38:19;101943.13;;;0.39;100.00
31096;BME280;17749;51.962;8.560;2023-01-25T04:40:51;101946.75;;;0.44;100.00
31096;BME280;17749;51.962;8.560;2023-01-25T04:43:25;101945.06;;;0.47;100.00
31096;BME280;17749;51.962;8.560;2023-01-25T04:46:00;101954.75;;;0.48;100.00
31096;BME280;17749;51.962;8.560;2023-01-25T04:48:32;101948.66;;;0.49;100.00
31096;BME280;17749;51.962;8.560;2023-01-25T04:51:03;101931.16;;;0.48;100.00
31096;BME280;17749;51.962;8.560;2023-01-25T04:53:32;101945.28;;;0.53;100.00
31096;BME280;17749;51.962;8.560;2023-01-25T06:03:19;101928.53;;;0.20;100.00
31096;BME280;17749;51.962;8.560;2023-01-25T06:05:46;101932.72;;;0.14;100.00
31096;BME280;17749;51.962;8.560;2023-01-25T06:08:13;101922.97;;;0.10;100.00
31096;BME280;17749;51.962;8.560;2023-01-25T06:10:43;101915.25;;;0.14;100.00
31096;BME280;17749;51.962;8.560;2023-01-25T06:13:10;101922.41;;;0.18;100.00
31096;BME280;17749;51.962;8.560;2023-01-25T06:15:37;101915.50;;;0.22;100.00
31096;BME280;17749;51.962;8.560;2023-01-25T06:18:25;101918.28;;;0.27;100.00
31096;BME280;17749;51.962;8.560;2023-01-25T06:21:15;101909.72;;;0.32;100.00
31096;BME280;17749;51.962;8.560;2023-01-25T06:23:42;101916.81;;;0.36;100.00
31096;BME280;17749;51.962;8.560;2023-01-25T06:26:12;101911.56;;;0.36;100.00
31096;BME280;17749;51.962;8.560;2023-01-25T06:28:40;101905.34;;;0.33;100.00
31096;BME280;17749;51.962;8.560;2023-01-25T06:31:12;101905.50;;;0.37;100.00
31096;BME280;17749;51.962;8.560;2023-01-25T06:33:42;101908.13;;;0.37;100.00
31096;BME280;17749;51.962;8.560;2023-01-25T06:36:11;101915.84;;;0.33;100.00
31096;BME280;17749;51.962;8.560;2023-01-25T06:38:39;101919.41;;;0.36;100.00
31096;BME280;17749;51.962;8.560;2023-01-25T06:41:09;101924.81;;;0.41;100.00
31096;BME280;17749;51.962;8.560;2023-01-25T06:43:37;101924.88;;;0.42;100.00
31096;BME280;17749;51.962;8.560;2023-01-25T06:46:07;101917.00;;;0.42;100.00
31096;BME280;17749;51.962;8.560;2023-01-25T06:48:34;101924.03;;;0.43;100.00
31096;BME280;17749;51.962;8.560;2023-01-25T06:51:04;101925.78;;;0.44;100.00
31096;BME280;17749;51.962;8.560;2023-01-25T06:53:31;101928.41;;;0.44;100.00
31096;BME280;17749;51.962;8.560;2023-01-25T06:56:11;101920.47;;;0.41;100.00
31096;BME280;17749;51.962;8.560;2023-01-25T06:58:38;101924.03;;;0.43;100.00
31096;BME280;17749;51.962;8.560;2023-01-25T07:01:25;101926.63;;;0.42;100.00
31096;BME280;17749;51.962;8.560;2023-01-25T07:03:57;101927.41;;;0.39;100.00
31096;BME280;17749;51.962;8.560;2023-01-25T07:06:29;101930.03;;;0.39;100.00
31096;BME280;17749;51.962;8.560;2023-01-25T07:09:04;101923.94;;;0.40;100.00
31096;BME280;17749;51.962;8.560;2023-01-25T07:11:32;101917.59;;;0.34;100.00
31096;BME280;17749;51.962;8.560;2023-01-25T07:13:59;101916.81;;;0.36;100.00
31096;BME280;17749;51.962;8.560;2023-01-25T07:16:26;101916.81;;;0.36;100.00
31096;BME280;17749;51.962;8.560;2023-01-25T07:18:53;101916.94;;;0.39;100.00
31096;BME280;17749;51.962;8.560;2023-01-25T07:21:35;101913.53;;;0.43;100.00
31096;BME280;17749;51.962;8.560;2023-01-25T07:24:04;101911.16;;;0.51;100.00
31096;BME280;17749;51.962;8.560;2023-01-25T07:26:32;101911.16;;;0.51;100.00
31096;BME280;17749;51.962;8.560;2023-01-25T07:28:59;101915.28;;;0.43;100.00
31096;BME280;17749;51.962;8.560;2023-01-25T07:31:28;101908.28;;;0.43;100.00
31096;BME280;17749;51.962;8.560;2023-01-25T07:33:58;101909.78;;;0.35;100.00
31096;BME280;17749;51.962;8.560;2023-01-25T07:36:25;101906.31;;;0.36;100.00
31096;BME280;17749;51.962;8.560;2023-01-25T07:38:54;101908.28;;;0.43;100.00
31096;BME280;17749;51.962;8.560;2023-01-25T07:41:23;101895.16;;;0.42;100.00
31096;BME280;17749;51.962;8.560;2023-01-25T07:43:52;101898.38;;;0.33;100.00
31096;BME280;17749;51.962;8.560;2023-01-25T07:46:31;101901.06;;;0.36;100.00
31096;BME280;17749;51.962;8.560;2023-01-25T07:48:59;101911.47;;;0.33;100.00
31096;BME280;17749;51.962;8.560;2023-01-25T07:51:27;101897.63;;;0.37;100.00
31096;BME280;17749;51.962;8.560;2023-01-25T07:53:59;101899.47;;;0.41;100.00
31096;BME280;17749;51.962;8.560;2023-01-25T07:56:30;101893.44;;;0.44;100.00
31096;BME280;17749;51.962;8.560;2023-01-25T07:59:00;101890.78;;;0.42;100.00
31096;BME280;17749;51.962;8.560;2023-01-25T08:01:31;101889.91;;;0.42;100.00
31096;BME280;17749;51.962;8.560;2023-01-25T08:04:00;101887.28;;;0.42;100.00
31096;BME280;17749;51.962;8.560;2023-01-25T08:06:30;101893.41;;;0.42;100.00
31096;BME280;17749;51.962;8.560;2023-01-25T08:09:08;101888.19;;;0.44;100.00
31096;BME280;17749;51.962;8.560;2023-01-25T08:11:36;101884.75;;;0.45;100.00
31096;BME280;17749;51.962;8.560;2023-01-25T08:14:03;101881.28;;;0.46;100.00
31096;BME280;17749;51.962;8.560;2023-01-25T08:16:30;101884.78;;;0.47;100.00
31096;BME280;17749;51.962;8.560;2023-01-25T08:18:59;101890.88;;;0.46;100.00
31096;BME280;17749;51.962;8.560;2023-01-25T08:21:27;101900.50;;;0.45;100.00
31096;BME280;17749;51.962;8.560;2023-01-25T08:23:59;101896.78;;;0.38;100.00
31096;BME280;17749;51.962;8.560;2023-01-25T08:26:26;101898.38;;;0.33;100.00
31096;BME280;17749;51.962;8.560;2023-01-25T08:28:57;101887.78;;;0.30;100.00
31096;BME280;17749;51.962;8.560;2023-01-25T08:31:26;101891.16;;;0.26;100.00
31096;BME280;17749;51.962;8.560;2023-01-25T08:33:54;101885.03;;;0.26;100.00
31096;BME280;17749;51.962;8.560;2023-01-25T08:36:22;101872.06;;;0.30;100.00
31096;BME280;17749;51.962;8.560;2023-01-25T08:38:58;101872.94;;;0.29;100.00
31096;BME280;17749;51.962;8.560;2023-01-25T08:41:27;101873.84;;;0.31;100.00
31096;BME280;17749;51.962;8.560;2023-01-25T08:43:55;101862.44;;;0.29;100.00
31096;BME280;17749;51.962;8.560;2023-01-25T08:46:25;101861.59;;;0.30;100.00
31096;BME280;17749;51.962;8.560;2023-01-25T08:48:58;101864.28;;;0.32;100.00
31096;BME280;17749;51.962;8.560;2023-01-25T08:51:25;101867.72;;;0.31;100.00
31096;BME280;17749;51.962;8.560;2023-01-25T08:53:52;101868.75;;;0.36;100.00
31096;BME280;17749;51.962;8.560;2023-01-25T08:56:20;101853.91;;;0.36;100.00
31096;BME280;17749;51.962;8.560;2023-01-25T08:58:48;101857.19;;;0.29;100.00
31096;BME280;17749;51.962;8.560;2023-01-25T09:01:17;101858.09;;;0.30;100.00
31096;BME280;17749;51.962;8.560;2023-01-25T09:03:46;101862.69;;;0.38;100.00
31096;BME280;17749;51.962;8.560;2023-01-25T09:06:14;101855.88;;;0.43;100.00
31096;BME280;17749;51.962;8.560;2023-01-25T09:08:42;101852.38;;;0.44;100.00
31096;BME280;17749;51.962;8.560;2023-01-25T09:11:14;101858.41;;;0.40;100.00
31096;BME280;17749;51.962;8.560;2023-01-25T09:13:41;101846.97;;;0.38;100.00
31096;BME280;17749;51.962;8.560;2023-01-25T09:16:12;101853.91;;;0.36;100.00
31096;BME280;17749;51.962;8.560;2023-01-25T09:18:40;101843.41;;;0.36;100.00
31096;BME280;17749;51.962;8.560;2023-01-25T09:21:13;101848.78;;;0.39;100.00
31096;BME280;17749;51.962;8.560;2023-01-25T09:23:40;101840.84;;;0.38;100.00
31096;BME280;17749;51.962;8.560;2023-01-25T09:26:30;101846.97;;;0.38;100.00
31096;BME280;17749;51.962;8.560;2023-01-25T09:28:58;101842.69;;;0.40;100.00
31096;BME280;17749;51.962;8.560;2023-01-25T09:31:25;101841.78;;;0.40;100.00
31096;BME280;17749;51.962;8.560;2023-01-25T09:34:08;101839.09;;;0.38;100.00
31096;BME280;17749;51.962;8.560;2023-01-25T09:36:36;101838.09;;;0.33;100.00
31096;BME280;17749;51.962;8.560;2023-01-25T09:39:03;101834.66;;;0.34;100.00
31096;BME280;17749;51.962;8.560;2023-01-25T09:55:31;101823.97;;;0.28;100.00
31096;BME280;17749;51.962;8.560;2023-01-25T09:58:00;101816.25;;;0.33;100.00
31096;BME280;17749;51.962;8.560;2023-01-25T10:00:43;101818.81;;;0.31;100.00
31096;BME280;17749;51.962;8.560;2023-01-25T10:03:13;101814.47;;;0.32;100.00
31096;BME280;17749;51.962;8.560;2023-01-25T10:05:44;101811.88;;;0.33;100.00
31096;BME280;17749;51.962;8.560;2023-01-25T10:08:22;101817.66;;;0.21;100.00
31096;BME280;17749;51.962;8.560;2023-01-25T10:11:01;101812.69;;;0.02;100.00
31096;BME280;17749;51.962;8.560;2023-01-25T10:13:30;101814.34;;;-0.02;100.00
31096;BME280;17749;51.962;8.560;2023-01-25T10:16:02;101814.84;;;-0.13;100.00
31096;BME280;17749;51.962;8.560;2023-01-25T10:18:36;101807.91;;;-0.13;100.00
31096;BME280;17749;51.962;8.560;2023-01-25T10:21:11;101805.94;;;-0.20;100.00
31096;BME280;17749;51.962;8.560;2023-01-25T10:26:25;101804.28;;;-0.16;100.00
31096;BME280;17749;51.962;8.560;2023-01-25T10:29:02;101797.78;;;-0.01;100.00
31096;BME280;17749;51.962;8.560;2023-01-25T10:31:45;101790.84;;;0.00;100.00
31096;BME280;17749;51.962;8.560;2023-01-25T10:34:29;101783.28;;;0.11;100.00
31096;BME280;17749;51.962;8.560;2023-01-25T10:37:01;101789.72;;;0.22;100.00
31096;BME280;17749;51.962;8.560;2023-01-25T10:39:31;101778.44;;;0.25;100.00
31096;BME280;17749;51.962;8.560;2023-01-25T10:42:01;101784.47;;;0.22;100.00
31096;BME280;17749;51.962;8.560;2023-01-25T10:44:31;101774.00;;;0.22;100.00
31096;BME280;17749;51.962;8.560;2023-01-25T10:49:55;101770.72;;;0.29;100.00
31096;BME280;17749;51.962;8.560;2023-01-25T10:52:27;101766.38;;;0.31;100.00
31096;BME280;17749;51.962;8.560;2023-01-25T10:55:15;101757.50;;;0.26;100.00
31096;BME280;17749;51.962;8.560;2023-01-25T10:58:02;101756.31;;;0.15;100.00
31096;BME280;17749;51.962;8.560;2023-01-25T11:00:34;101748.66;;;0.21;100.00
31096;BME280;17749;51.962;8.560;2023-01-25T11:03:03;101741.78;;;0.26;100.00
31096;BME280;17749;51.962;8.560;2023-01-25T11:08:24;101747.03;;;0.26;100.00
31096;BME280;17749;51.962;8.560;2023-01-25T11:10:52;101740.16;;;0.30;100.00
31096;BME280;17749;51.962;8.560;2023-01-25T11:13:22;101739.97;;;0.24;100.00
31096;BME280;17749;51.962;8.560;2023-01-25T11:18:31;101716.66;;;0.03;100.00
31096;BME280;17749;51.962;8.560;2023-01-25T11:21:13;101712.69;;;-0.15;100.00
31096;BME280;17749;51.962;8.560;2023-01-25T11:26:37;101707.19;;;0.06;100.00
31096;BME280;17749;51.962;8.560;2023-01-25T11:31:34;101704.59;;;0.08;100.00
31096;BME280;17749;51.962;8.560;2023-01-25T11:34:01;101699.25;;;0.03;100.00
31096;BME280;17749;51.962;8.560;2023-01-25T11:36:37;101692.34;;;0.07;100.00
31096;BME280;17749;51.962;8.560;2023-01-25T11:39:34;101695.00;;;0.08;100.00
31096;BME280;17749;51.962;8.560;2023-01-25T11:45:22;101685.16;;;-0.01;100.00
31096;BME280;17749;51.962;8.560;2023-01-25T11:50:43;101663.47;;;0.05;100.00
31096;BME280;17749;51.962;8.560;2023-01-25T12:13:33;101611.16;;;-0.25;100.00
31096;BME280;17749;51.962;8.560;2023-01-25T12:16:25;101600.75;;;-0.22;100.00
31096;BME280;17749;51.962;8.560;2023-01-25T12:24:29;101590.78;;;-0.04;100.00
31096;BME280;17749;51.962;8.560;2023-01-25T12:32:36;101581.81;;;-0.12;100.00
31096;BME280;17749;51.962;8.560;2023-01-25T12:35:27;101568.81;;;-0.09;100.00
31096;BME280;17749;51.962;8.560;2023-01-25T12:38:01;101558.34;;;-0.09;100.00
31096;BME280;17749;51.962;8.560;2023-01-25T12:43:36;101547.28;;;-0.30;100.00
31096;BME280;17749;51.962;8.560;2023-01-25T12:46:16;101534.03;;;-0.36;100.00
31096;BME280;17749;51.962;8.560;2023-01-25T12:48:49;101527.94;;;-0.35;100.00
31096;BME280;17749;51.962;8.560;2023-01-25T12:51:20;101515.94;;;-0.27;100.00
31096;BME280;17749;51.962;8.560;2023-01-25T12:53:48;101513.47;;;-0.21;100.00
31096;BME280;17749;51.962;8.560;2023-01-25T12:56:52;101509.09;;;-0.24;100.00
31096;BME280;17749;51.962;8.560;2023-01-25T12:59:33;101498.47;;;-0.28;100.00
31096;BME280;17749;51.962;8.560;2023-01-25T13:02:17;101507.09;;;-0.32;100.00
31096;BME280;17749;51.962;8.560;2023-01-25T13:05:00;101494.84;;;-0.33;100.00
31096;BME280;17749;51.962;8.560;2023-01-25T13:07:36;101490.28;;;-0.40;100.00
31096;BME280;17749;51.962;8.560;2023-01-25T13:10:23;101483.31;;;-0.41;100.00
31096;BME280;17749;51.962;8.560;2023-01-25T13:12:54;101477.13;;;-0.43;100.00
31096;BME280;17749;51.962;8.560;2023-01-25T13:20:54;101479.47;;;-0.53;100.00
31096;BME280;17749;51.962;8.560;2023-01-25T13:28:55;101471.13;;;-0.71;100.00
31096;BME280;17749;51.962;8.560;2023-01-25T13:31:43;101454.69;;;-0.67;100.00
31096;BME280;17749;51.962;8.560;2023-01-25T13:37:22;101456.72;;;-0.57;100.00
31096;BME280;17749;51.962;8.560;2023-01-25T13:39:55;101448.38;;;-0.75;100.00
31096;BME280;17749;51.962;8.560;2023-01-25T13:42:34;101448.00;;;-0.89;100.00
31096;BME280;17749;51.962;8.560;2023-01-25T13:45:16;101441.03;;;-0.89;100.00
31096;BME280;17749;51.962;8.560;2023-01-25T13:48:00;101449.38;;;-0.70;100.00
31096;BME280;17749;51.962;8.560;2023-01-25T13:50:32;101439.06;;;-0.64;100.00
31096;BME280;17749;51.962;8.560;2023-01-25T13:53:01;101433.75;;;-0.67;100.00
31096;BME280;17749;51.962;8.560;2023-01-25T13:55:43;101435.66;;;-0.61;100.00
31096;BME280;17749;51.962;8.560;2023-01-25T13:58:18;101433.16;;;-0.57;100.00
31096;BME280;17749;51.962;8.560;2023-01-25T14:00:54;101423.63;;;-0.55;100.00
31096;BME280;17749;51.962;8.560;2023-01-25T14:03:27;101427.94;;;-0.55;100.00
31096;BME280;17749;51.962;8.560;2023-01-25T14:05:56;101415.88;;;-0.50;100.00
31096;BME280;17749;51.962;8.560;2023-01-25T14:08:24;101420.22;;;-0.51;100.00
31096;BME280;17749;51.962;8.560;2023-01-25T14:10:52;101409.06;;;-0.78;100.00
31096;BME280;17749;51.962;8.560;2023-01-25T14:13:20;101403.03;;;-0.74;100.00
31096;BME280;17749;51.962;8.560;2023-01-25T14:15:55;101409.13;;;-0.75;100.00
31096;BME280;17749;51.962;8.560;2023-01-25T14:18:31;101402.44;;;-0.64;100.00
31096;BME280;17749;51.962;8.560;2023-01-25T14:23:43;101404.19;;;-0.63;100.00
31096;BME280;17749;51.962;8.560;2023-01-25T14:26:17;101399.81;;;-0.65;100.00
31096;BME280;17749;51.962;8.560;2023-01-25T14:28:48;101405.31;;;-0.55;100.00
31096;BME280;17749;51.962;8.560;2023-01-25T14:31:31;101410.63;;;-0.50;100.00
31096;BME280;17749;51.962;8.560;2023-01-25T14:34:00;101411.28;;;-0.59;100.00
31096;BME280;17749;51.962;8.560;2023-01-25T14:36:31;101415.53;;;-0.64;100.00
31096;BME280;17749;51.962;8.560;2023-01-25T14:39:00;101412.75;;;-0.70;100.00
31096;BME280;17749;51.962;8.560;2023-01-25T14:41:35;101411.88;;;-0.71;100.00
31096;BME280;17749;51.962;8.560;2023-01-25T14:44:12;101406.53;;;-0.74;100.00
31096;BME280;17749;51.962;8.560;2023-01-25T14:46:39;101404.66;;;-0.79;100.00
31096;BME280;17749;51.962;8.560;2023-01-25T14:49:22;101403.81;;;-0.78;100.00
31096;BME280;17749;51.962;8.560;2023-01-25T14:52:03;101402.28;;;-0.70;100.00
31096;BME280;17749;51.962;8.560;2023-01-25T14:54:35;101407.59;;;-0.67;100.00
31096;BME280;17749;51.962;8.560;2023-01-25T14:57:05;101404.94;;;-0.69;100.00
31096;BME280;17749;51.962;8.560;2023-01-25T14:59:43;101401.44;;;-0.69;100.00
31096;BME280;17749;51.962;8.560;2023-01-25T15:02:43;101396.78;;;-0.79;100.00
31096;BME280;17749;51.962;8.560;2023-01-25T15:07:46;101385.31;;;-0.84;100.00
31096;BME280;17749;51.962;8.560;2023-01-25T15:10:21;101377.56;;;-0.81;100.00
31096;BME280;17749;51.962;8.560;2023-01-25T15:13:03;101380.28;;;-0.78;100.00
31096;BME280;17749;51.962;8.560;2023-01-25T15:15:57;101376.06;;;-0.73;100.00
31096;BME280;17749;51.962;8.560;2023-01-25T15:21:13;101370.16;;;-0.98;100.00
31096;BME280;17749;51.962;8.560;2023-01-25T15:23:41;101370.41;;;-1.20;100.00
31096;BME280;17749;51.962;8.560;2023-01-25T15:26:17;101368.47;;;-1.27;100.00
31096;BME280;17749;51.962;8.560;2023-01-25T15:28:45;101363.66;;;-1.44;100.00
31096;BME280;17749;51.962;8.560;2023-01-25T15:31:32;101366.38;;;-1.39;100.00
31096;BME280;17749;51.962;8.560;2023-01-25T15:34:00;101375.38;;;-1.29;100.00
31096;BME280;17749;51.962;8.560;2023-01-25T15:36:28;101362.94;;;-1.38;100.00
31096;BME280;17749;51.962;8.560;2023-01-25T15:38:55;101361.13;;;-1.41;100.00
31096;BME280;17749;51.962;8.560;2023-01-25T15:41:23;101370.91;;;-1.34;100.00
31096;BME280;17749;51.962;8.560;2023-01-25T15:43:50;101360.72;;;-1.24;100.00
31096;BME280;17749;51.962;8.560;2023-01-25T15:46:18;101361.00;;;-1.14;100.00
31096;BME280;17749;51.962;8.560;2023-01-25T15:48:48;101345.38;;;-1.12;100.00
31096;BME280;17749;51.962;8.560;2023-01-25T15:51:15;101342.53;;;-1.20;100.00
31096;BME280;17749;51.962;8.560;2023-01-25T15:53:42;101343.50;;;-1.16;100.00
31096;BME280;17749;51.962;8.560;2023-01-25T15:56:13;101343.56;;;-1.13;100.00
31096;BME280;17749;51.962;8.560;2023-01-25T15:58:44;101339.38;;;-1.08;100.00
31096;BME280;17749;51.962;8.560;2023-01-25T16:01:12;101325.41;;;-1.08;100.00
31096;BME280;17749;51.962;8.560;2023-01-25T16:03:39;101340.22;;;-1.09;100.00